Terminal Aerodrome Forecast
Issued by NWS Wilmington, OH

Current Version | Previous Version | Graphics & Text | Print | Product List | Glossary On
Versions: 1 2 3 4 5 6 7 8 9 10 11 12 13 14 15 16 17
000
FTUS41 KILN 200300 AAB
TAFCMH
TAF AMD
KCMH 200357Z 2004/2024 28021G30KT P6SM VCSH SCT029 OVC035
     FM200500 27014G24KT P6SM VCSH OVC025
     FM201000 26012KT P6SM OVC035
     FM201400 25014G22KT P6SM OVC035=

USA.gov is the U.S. government's official web portal to all federal, state and local government web resources and services.